createdAt,value
2023-03-26T00:00:13.451Z,94616.00
2023-03-26T00:01:13.524Z,94616.00
2023-03-26T00:02:13.582Z,94612.00
2023-03-26T00:03:13.626Z,94614.00
2023-03-26T00:04:13.664Z,94614.00
2023-03-26T00:05:13.752Z,94610.00
2023-03-26T00:06:13.779Z,94610.00
2023-03-26T00:07:13.846Z,94610.00
2023-03-26T00:08:13.937Z,94606.00
2023-03-26T00:09:13.988Z,94608.00
2023-03-26T00:10:14.047Z,94604.00
2023-03-26T00:11:14.130Z,94602.00
2023-03-26T00:12:14.146Z,94608.00
2023-03-26T00:13:14.247Z,94606.00
2023-03-26T00:14:14.329Z,94606.00
2023-03-26T00:15:14.348Z,94606.00
2023-03-26T00:16:14.462Z,94610.00
2023-03-26T00:17:14.528Z,94608.00
2023-03-26T00:18:14.538Z,94610.00
2023-03-26T00:19:14.616Z,94606.00
2023-03-26T00:20:14.680Z,94602.00
2023-03-26T00:21:14.736Z,94602.00
2023-03-26T00:22:14.813Z,94600.00
2023-03-26T00:23:14.959Z,94598.00
2023-03-26T00:24:15.112Z,94598.00
2023-03-26T00:25:14.974Z,94602.00
2023-03-26T00:26:15.058Z,94600.00
2023-03-26T00:27:15.072Z,94608.00
2023-03-26T00:28:15.120Z,94610.00
2023-03-26T00:29:15.197Z,94610.00
2023-03-26T00:30:15.227Z,94614.00
2023-03-26T00:31:15.300Z,94612.00
2023-03-26T00:32:15.323Z,94614.00
2023-03-26T00:33:15.388Z,94612.00
2023-03-26T00:34:15.545Z,94612.00
2023-03-26T00:35:15.525Z,94610.00
2023-03-26T00:36:15.685Z,94602.00
2023-03-26T00:37:15.640Z,94598.00
2023-03-26T00:38:15.649Z,94593.00
2023-03-26T00:39:15.751Z,94595.00
2023-03-26T00:40:15.751Z,94595.00
2023-03-26T00:41:15.819Z,94591.00
2023-03-26T00:42:15.866Z,94595.00
2023-03-26T00:43:15.925Z,94595.00
2023-03-26T00:44:15.989Z,94597.00
2023-03-26T00:45:16.027Z,94598.00
2023-03-26T00:46:16.143Z,94597.00
2023-03-26T00:47:16.156Z,94597.00
2023-03-26T00:48:16.196Z,94595.00
2023-03-26T00:49:16.299Z,94593.00
2023-03-26T00:50:16.344Z,94595.00
2023-03-26T00:51:16.350Z,94593.00
2023-03-26T00:52:16.414Z,94593.00
2023-03-26T00:53:16.496Z,94591.00
2023-03-26T00:54:16.509Z,94589.00
2023-03-26T00:55:16.562Z,94587.00
2023-03-26T00:56:16.636Z,94591.00
2023-03-26T00:57:28.869Z,94593.00
2023-03-26T00:58:17.729Z,94595.00
2023-03-26T00:59:16.767Z,94593.00
2023-03-26T01:00:16.945Z,94593.00
2023-03-26T01:01:16.816Z,94589.00
2023-03-26T01:02:16.846Z,94585.00
2023-03-26T01:03:26.591Z,94585.00
2023-03-26T01:04:18.014Z,94583.00
2023-03-26T01:06:16.927Z,94579.00
2023-03-26T01:07:16.924Z,94575.00
2023-03-26T01:08:16.942Z,94573.00
2023-03-26T01:09:17.004Z,94573.00
2023-03-26T01:10:17.004Z,94569.00
2023-03-26T01:11:17.045Z,94569.00
2023-03-26T01:12:17.129Z,94571.00
2023-03-26T01:13:17.091Z,94567.00
2023-03-26T01:14:17.144Z,94571.00
2023-03-26T01:15:17.154Z,94565.00
2023-03-26T01:16:17.231Z,94565.00
2023-03-26T01:17:17.228Z,94563.00
2023-03-26T01:18:17.236Z,94565.00
2023-03-26T01:19:17.293Z,94565.00
2023-03-26T01:20:17.297Z,94567.00
2023-03-26T01:21:17.338Z,94567.00
2023-03-26T01:22:17.374Z,94571.00
2023-03-26T01:23:17.403Z,94573.00
2023-03-26T01:24:17.448Z,94575.00
2023-03-26T01:44:18.281Z,94546.00
2023-03-26T01:45:18.352Z,94546.00
2023-03-26T01:46:18.470Z,94551.00
2023-03-26T01:47:18.456Z,94550.00
2023-03-26T01:48:18.511Z,94551.00
2023-03-26T01:49:18.547Z,94559.00
2023-03-26T01:50:18.589Z,94553.00
2023-03-26T01:51:18.636Z,94551.00
2023-03-26T01:52:18.711Z,94553.00
2023-03-26T01:53:18.765Z,94550.00
2023-03-26T01:54:18.761Z,94548.00
2023-03-26T01:55:18.826Z,94551.00
2023-03-26T01:56:18.890Z,94553.00
2023-03-26T01:57:18.912Z,94553.00
2023-03-26T01:58:19.002Z,94559.00
2023-03-26T01:59:19.068Z,94555.00
2023-03-26T02:00:19.117Z,94557.00
2023-03-26T02:01:19.153Z,94555.00
2023-03-26T02:02:19.193Z,94555.00
2023-03-26T02:03:19.363Z,94555.00
2023-03-26T02:09:19.522Z,94557.00
2023-03-26T02:10:19.543Z,94557.00
2023-03-26T02:11:20.085Z,94557.00
2023-03-26T02:12:19.590Z,94559.00
2023-03-26T02:13:19.666Z,94563.00
2023-03-26T02:14:19.688Z,94563.00
2023-03-26T02:15:19.764Z,94567.00
2023-03-26T02:16:19.852Z,94571.00
2023-03-26T02:17:19.855Z,94573.00
2023-03-26T02:18:19.917Z,94571.00
2023-03-26T02:19:20.368Z,94567.00
2023-03-26T02:25:20.249Z,94559.00
2023-03-26T02:26:20.274Z,94559.00
2023-03-26T02:27:20.330Z,94559.00
2023-03-26T02:28:20.402Z,94557.00
2023-03-26T02:29:20.653Z,94559.00
2023-03-26T02:30:20.457Z,94557.00
2023-03-26T02:31:20.608Z,94555.00
2023-03-26T02:48:21.316Z,94544.00
2023-03-26T02:49:21.361Z,94540.00
2023-03-26T02:50:21.376Z,94542.00
2023-03-26T02:51:21.393Z,94542.00
2023-03-26T02:52:21.471Z,94544.00
2023-03-26T02:53:21.539Z,94544.00
2023-03-26T02:54:21.591Z,94544.00
2023-03-26T02:55:21.599Z,94542.00
2023-03-26T02:56:21.702Z,94548.00
2023-03-26T02:57:21.689Z,94551.00
2023-03-26T02:59:21.815Z,94550.00
2023-03-26T03:00:21.887Z,94546.00
2023-03-26T03:01:21.985Z,94544.00
2023-03-26T03:02:22.016Z,94544.00
2023-03-26T03:03:22.156Z,94542.00
2023-03-26T03:04:22.106Z,94536.00
2023-03-26T03:05:22.298Z,94536.00
2023-03-26T03:06:22.102Z,94534.00
2023-03-26T03:20:22.764Z,94518.00
2023-03-26T03:21:22.776Z,94520.00
2023-03-26T03:22:22.842Z,94520.00
2023-03-26T03:23:23.142Z,94518.00
2023-03-26T03:24:22.940Z,94518.00
2023-03-26T03:25:22.944Z,94520.00
2023-03-26T03:26:22.997Z,94520.00
2023-03-26T03:27:23.061Z,94514.00
2023-03-26T03:28:23.122Z,94512.00
2023-03-26T03:29:23.191Z,94510.00
2023-03-26T03:30:23.196Z,94508.00
2023-03-26T03:31:23.256Z,94508.00
2023-03-26T03:32:23.329Z,94506.00
2023-03-26T03:33:23.340Z,94504.00
2023-03-26T03:34:23.360Z,94502.00
2023-03-26T03:35:23.460Z,94500.00
2023-03-26T03:36:23.484Z,94496.00
2023-03-26T03:37:23.545Z,94496.00
2023-03-26T03:38:23.586Z,94496.00
2023-03-26T03:39:23.659Z,94495.00
2023-03-26T03:40:23.733Z,94493.00
2023-03-26T03:41:23.744Z,94493.00
2023-03-26T03:42:23.782Z,94493.00
2023-03-26T03:43:23.817Z,94493.00
2023-03-26T03:44:23.896Z,94493.00
2023-03-26T03:45:23.950Z,94498.00
2023-03-26T03:46:24.028Z,94498.00
2023-03-26T03:47:24.050Z,94502.00
2023-03-26T03:48:24.184Z,94502.00
2023-03-26T04:02:24.713Z,94477.00
2023-03-26T04:03:33.412Z,94477.00
2023-03-26T04:24:25.258Z,94475.00
2023-03-26T04:25:25.314Z,94475.00
2023-03-26T04:26:25.342Z,94471.00
2023-03-26T04:27:25.347Z,94469.00
2023-03-26T04:28:25.427Z,94465.00
2023-03-26T04:29:25.434Z,94461.00
2023-03-26T04:30:25.475Z,94461.00
2023-03-26T04:31:25.559Z,94459.00
2023-03-26T04:32:25.642Z,94457.00
2023-03-26T04:33:25.629Z,94457.00
2023-03-26T04:34:25.683Z,94457.00
2023-03-26T04:35:25.744Z,94455.00
2023-03-26T04:36:25.791Z,94451.00
2023-03-26T04:37:25.837Z,94451.00
2023-03-26T04:38:25.890Z,94449.00
2023-03-26T04:51:26.450Z,94430.00
2023-03-26T04:52:26.516Z,94430.00
2023-03-26T04:53:26.548Z,94428.00
2023-03-26T04:54:26.610Z,94426.00
2023-03-26T04:55:26.681Z,94426.00
2023-03-26T04:56:26.743Z,94422.00
2023-03-26T04:57:26.787Z,94420.00
2023-03-26T04:58:26.856Z,94418.00
2023-03-26T04:59:26.858Z,94418.00
2023-03-26T05:00:26.908Z,94416.00
2023-03-26T05:01:27.021Z,94416.00
2023-03-26T05:02:27.024Z,94414.00
2023-03-26T05:03:27.031Z,94414.00
2023-03-26T05:04:27.153Z,94414.00
2023-03-26T05:05:28.405Z,94412.00
2023-03-26T05:12:27.470Z,94402.00
2023-03-26T05:13:27.521Z,94404.00
2023-03-26T05:14:27.538Z,94404.00
2023-03-26T05:15:27.601Z,94404.00
2023-03-26T05:16:27.654Z,94406.00
2023-03-26T05:17:27.732Z,94406.00
2023-03-26T05:18:27.764Z,94408.00
2023-03-26T05:19:27.808Z,94414.00
2023-03-26T05:20:27.834Z,94414.00
2023-03-26T05:21:27.918Z,94418.00
2023-03-26T05:22:27.989Z,94418.00
2023-03-26T05:23:28.041Z,94418.00
2023-03-26T05:24:28.085Z,94416.00
2023-03-26T05:25:28.116Z,94416.00
2023-03-26T05:26:28.192Z,94414.00
2023-03-26T05:27:28.240Z,94414.00
2023-03-26T05:28:28.309Z,94418.00
2023-03-26T05:29:28.411Z,94414.00
2023-03-26T05:30:28.438Z,94414.00
2023-03-26T05:31:28.516Z,94416.00
2023-03-26T05:32:28.589Z,94416.00
2023-03-26T05:33:28.767Z,94416.00
2023-03-26T05:34:28.688Z,94416.00
2023-03-26T05:35:28.719Z,94416.00
2023-03-26T05:36:28.768Z,94412.00
2023-03-26T05:37:28.818Z,94412.00
2023-03-26T05:38:28.896Z,94410.00
2023-03-26T05:39:28.958Z,94410.00
2023-03-26T05:40:28.962Z,94406.00
2023-03-26T05:41:29.038Z,94404.00
2023-03-26T05:42:29.075Z,94401.00
2023-03-26T05:43:29.158Z,94399.00
2023-03-26T05:44:29.233Z,94399.00
2023-03-26T05:45:29.271Z,94397.00
2023-03-26T05:46:29.367Z,94395.00
2023-03-26T05:47:29.407Z,94391.00
2023-03-26T05:48:29.449Z,94389.00
2023-03-26T05:49:29.548Z,94387.00
2023-03-26T05:50:29.608Z,94383.00
2023-03-26T05:51:29.629Z,94383.00
2023-03-26T05:52:29.727Z,94383.00
2023-03-26T05:53:29.788Z,94381.00
2023-03-26T05:54:29.845Z,94379.00
2023-03-26T05:55:29.898Z,94379.00
2023-03-26T05:57:30.850Z,94369.00
2023-03-26T06:01:30.268Z,94359.00
2023-03-26T06:02:30.368Z,94357.00
2023-03-26T06:03:30.540Z,94356.00
2023-03-26T06:04:30.568Z,94357.00
2023-03-26T06:05:30.560Z,94356.00
2023-03-26T06:06:33.099Z,94356.00
2023-03-26T06:07:30.574Z,94356.00
2023-03-26T06:08:30.653Z,94356.00
2023-03-26T06:09:30.672Z,94356.00
2023-03-26T06:10:30.663Z,94354.00
2023-03-26T06:11:30.707Z,94354.00
2023-03-26T06:12:30.790Z,94350.00
2023-03-26T06:13:30.790Z,94346.00
2023-03-26T06:14:30.824Z,94348.00
2023-03-26T06:15:30.882Z,94342.00
2023-03-26T06:16:30.948Z,94344.00
2023-03-26T06:17:30.956Z,94342.00
2023-03-26T06:18:30.945Z,94340.00
2023-03-26T06:19:30.919Z,94340.00
2023-03-26T06:20:30.937Z,94340.00
2023-03-26T06:21:31.030Z,94338.00
2023-03-26T06:22:31.042Z,94338.00
2023-03-26T06:23:31.104Z,94334.00
2023-03-26T06:24:31.103Z,94334.00
2023-03-26T06:25:31.169Z,94334.00
2023-03-26T06:26:31.125Z,94334.00
2023-03-26T06:27:31.180Z,94330.00
2023-03-26T06:28:31.224Z,94330.00
2023-03-26T06:29:31.237Z,94324.00
2023-03-26T06:30:31.291Z,94320.00
2023-03-26T06:35:31.500Z,94332.00
2023-03-26T06:36:31.480Z,94334.00
2023-03-26T06:37:31.494Z,94330.00
2023-03-26T06:38:31.541Z,94328.00
2023-03-26T06:39:31.572Z,94324.00
2023-03-26T06:40:31.570Z,94320.00
2023-03-26T06:41:31.622Z,94316.00
2023-03-26T06:43:06.515Z,94318.00
2023-03-26T06:44:31.679Z,94320.00
2023-03-26T06:45:31.725Z,94324.00
2023-03-26T06:46:31.806Z,94324.00
2023-03-26T06:48:31.833Z,94314.00
2023-03-26T06:49:31.851Z,94308.00
2023-03-26T06:50:31.910Z,94306.00
2023-03-26T06:54:32.019Z,94297.00
2023-03-26T06:55:32.027Z,94301.00
2023-03-26T06:56:32.036Z,94301.00
2023-03-26T06:57:32.079Z,94302.00
2023-03-26T06:58:32.118Z,94297.00
2023-03-26T06:59:32.151Z,94293.00
2023-03-26T07:00:32.222Z,94289.00
2023-03-26T07:01:32.308Z,94289.00
2023-03-26T07:02:32.330Z,94287.00
2023-03-26T07:03:32.353Z,94285.00
2023-03-26T07:04:32.452Z,94283.00
2023-03-26T07:05:32.493Z,94277.00
2023-03-26T07:06:32.532Z,94269.00
2023-03-26T07:07:32.552Z,94263.00
2023-03-26T07:08:32.663Z,94261.00
2023-03-26T07:09:32.703Z,94255.00
2023-03-26T07:10:32.765Z,94252.00
2023-03-26T07:11:32.778Z,94248.00
2023-03-26T07:12:32.824Z,94252.00
2023-03-26T07:13:32.918Z,94248.00
2023-03-26T07:14:32.935Z,94244.00
2023-03-26T07:15:32.985Z,94240.00
2023-03-26T07:16:33.114Z,94238.00
2023-03-26T07:17:33.112Z,94232.00
2023-03-26T07:18:33.218Z,94226.00
2023-03-26T07:33:33.989Z,94236.00
2023-03-26T07:34:34.058Z,94234.00
2023-03-26T07:35:34.131Z,94236.00
2023-03-26T07:36:34.163Z,94238.00
2023-03-26T07:37:34.258Z,94234.00
2023-03-26T07:38:34.271Z,94232.00
2023-03-26T07:39:34.316Z,94228.00
2023-03-26T07:40:34.376Z,94224.00
2023-03-26T07:41:34.434Z,94222.00
2023-03-26T07:42:34.483Z,94220.00
2023-03-26T07:43:34.581Z,94220.00
2023-03-26T07:44:35.819Z,94220.00
2023-03-26T07:45:34.632Z,94224.00
2023-03-26T07:46:34.676Z,94222.00
2023-03-26T07:47:34.838Z,94220.00
2023-03-26T07:48:34.832Z,94214.00
2023-03-26T07:49:34.841Z,94207.00
2023-03-26T07:50:34.890Z,94201.00
2023-03-26T07:51:34.988Z,94191.00
2023-03-26T07:52:35.075Z,94183.00
2023-03-26T07:53:35.066Z,94179.00
2023-03-26T07:54:35.111Z,94177.00
2023-03-26T07:55:35.166Z,94173.00
2023-03-26T07:56:35.330Z,94165.00
2023-03-26T07:57:35.276Z,94160.00
2023-03-26T07:58:35.325Z,94154.00
2023-03-26T07:59:35.376Z,94146.00
2023-03-26T08:00:35.444Z,94146.00
2023-03-26T08:01:35.468Z,94146.00
2023-03-26T08:02:35.567Z,94148.00
2023-03-26T08:03:35.719Z,94148.00
2023-03-26T08:04:35.713Z,94146.00
2023-03-26T08:05:35.693Z,94142.00
2023-03-26T08:06:35.765Z,94134.00
2023-03-26T08:07:35.776Z,94128.00
2023-03-26T08:08:35.870Z,94122.00
2023-03-26T08:09:35.853Z,94111.00
2023-03-26T08:10:35.902Z,94107.00
2023-03-26T08:11:36.018Z,94103.00
2023-03-26T08:12:36.064Z,94101.00
2023-03-26T08:13:36.059Z,94101.00
2023-03-26T08:14:36.150Z,94105.00
2023-03-26T08:15:36.206Z,94105.00
2023-03-26T08:16:36.192Z,94107.00
2023-03-26T08:17:36.332Z,94107.00
2023-03-26T08:18:36.367Z,94112.00
2023-03-26T08:19:36.371Z,94107.00
2023-03-26T08:20:36.404Z,94109.00
2023-03-26T08:21:36.453Z,94111.00
2023-03-26T08:22:36.498Z,94114.00
2023-03-26T08:23:36.545Z,94114.00
2023-03-26T08:24:37.588Z,94122.00
2023-03-26T08:32:36.831Z,94081.00
2023-03-26T08:33:38.414Z,94075.00
2023-03-26T08:34:36.875Z,94077.00
2023-03-26T08:35:36.966Z,94075.00
2023-03-26T08:36:36.922Z,94073.00
2023-03-26T08:37:36.933Z,94071.00
2023-03-26T08:38:37.007Z,94069.00
2023-03-26T08:46:37.337Z,94054.00
2023-03-26T08:47:37.338Z,94054.00
2023-03-26T08:48:37.343Z,94046.00
2023-03-26T08:49:37.400Z,94042.00
2023-03-26T08:50:37.448Z,94038.00
2023-03-26T08:51:37.513Z,94034.00
2023-03-26T08:52:37.510Z,94028.00
2023-03-26T08:53:37.574Z,94026.00
2023-03-26T08:54:37.630Z,94024.00
2023-03-26T08:56:37.757Z,94026.00
2023-03-26T08:57:37.706Z,94026.00
2023-03-26T08:58:37.783Z,94024.00
2023-03-26T08:59:37.803Z,94022.00
2023-03-26T09:00:37.876Z,94016.00
2023-03-26T09:01:37.977Z,94011.00
2023-03-26T09:04:38.080Z,94005.00
2023-03-26T09:05:38.159Z,94009.00
2023-03-26T09:06:38.138Z,94011.00
2023-03-26T09:07:38.189Z,94013.00
2023-03-26T09:08:38.298Z,94014.00
2023-03-26T09:09:39.270Z,94018.00
2023-03-26T09:12:38.423Z,94024.00
2023-03-26T09:15:38.392Z,94024.00
2023-03-26T09:16:38.521Z,94028.00
2023-03-26T09:17:38.521Z,94026.00
2023-03-26T09:18:38.523Z,94026.00
2023-03-26T09:19:38.516Z,94024.00
2023-03-26T09:20:38.523Z,94024.00
2023-03-26T09:21:38.577Z,94022.00
2023-03-26T09:22:38.563Z,94028.00
2023-03-26T09:23:38.622Z,94028.00
2023-03-26T09:24:38.688Z,94030.00
2023-03-26T09:25:38.703Z,94030.00
2023-03-26T09:26:38.708Z,94028.00
2023-03-26T09:27:38.776Z,94022.00
2023-03-26T09:28:38.825Z,94026.00
2023-03-26T09:29:38.863Z,94026.00
2023-03-26T09:30:38.948Z,94026.00
2023-03-26T09:31:39.058Z,94024.00
2023-03-26T09:32:39.125Z,94020.00
2023-03-26T09:33:39.138Z,94020.00
2023-03-26T09:34:39.168Z,94020.00
2023-03-26T09:35:39.273Z,94020.00
2023-03-26T09:36:39.275Z,94022.00
2023-03-26T09:37:57.069Z,94022.00
2023-03-26T09:38:40.430Z,94020.00
2023-03-26T09:39:39.396Z,94018.00
2023-03-26T09:40:39.419Z,94016.00
2023-03-26T09:41:39.456Z,94013.00
2023-03-26T09:42:39.491Z,94009.00
2023-03-26T09:43:39.561Z,94005.00
2023-03-26T09:44:40.429Z,94005.00
2023-03-26T09:49:39.735Z,93995.00
2023-03-26T09:50:39.747Z,93995.00
2023-03-26T09:51:39.788Z,93991.00
2023-03-26T09:52:39.787Z,93987.00
2023-03-26T09:53:39.829Z,93987.00
2023-03-26T09:54:39.895Z,93983.00
2023-03-26T09:55:39.884Z,93985.00
2023-03-26T09:56:39.931Z,93983.00
2023-03-26T09:57:40.033Z,93975.00
2023-03-26T09:58:40.074Z,93969.00
2023-03-26T09:59:40.132Z,93973.00
2023-03-26T10:00:40.163Z,93971.00
2023-03-26T10:01:40.367Z,93967.00
2023-03-26T10:02:45.540Z,93967.00
2023-03-26T10:03:41.326Z,93967.00
2023-03-26T10:05:40.376Z,93967.00
2023-03-26T10:06:40.423Z,93966.00
2023-03-26T10:07:40.427Z,93958.00
2023-03-26T10:08:40.454Z,93956.00
2023-03-26T10:09:40.455Z,93954.00
2023-03-26T10:10:40.526Z,93950.00
2023-03-26T10:11:40.569Z,93954.00
2023-03-26T10:12:40.550Z,93956.00
2023-03-26T10:13:40.610Z,93956.00
2023-03-26T10:14:40.665Z,93952.00
2023-03-26T10:20:40.878Z,93946.00
2023-03-26T10:21:40.980Z,93946.00
2023-03-26T10:22:41.020Z,93948.00
2023-03-26T10:23:41.093Z,93946.00
2023-03-26T10:24:41.112Z,93942.00
2023-03-26T10:25:41.229Z,93940.00
2023-03-26T10:26:41.251Z,93940.00
2023-03-26T10:27:42.283Z,93940.00
2023-03-26T10:29:41.381Z,93944.00
2023-03-26T10:30:41.362Z,93946.00
2023-03-26T10:31:41.395Z,93946.00
2023-03-26T10:32:41.474Z,93948.00
2023-03-26T10:33:41.417Z,93948.00
2023-03-26T10:34:41.482Z,93948.00
2023-03-26T10:35:41.498Z,93948.00
2023-03-26T10:36:41.504Z,93948.00
2023-03-26T10:37:41.523Z,93944.00
2023-03-26T10:38:41.534Z,93938.00
2023-03-26T10:39:42.409Z,93944.00
2023-03-26T10:40:41.611Z,93944.00
2023-03-26T10:41:41.619Z,93946.00
2023-03-26T10:42:41.680Z,93944.00
2023-03-26T10:43:41.678Z,93946.00
2023-03-26T10:44:41.725Z,93950.00
2023-03-26T10:45:41.730Z,93946.00
2023-03-26T10:46:41.878Z,93944.00
2023-03-26T10:48:41.881Z,93944.00
2023-03-26T10:49:41.936Z,93946.00
2023-03-26T10:50:41.984Z,93940.00
2023-03-26T10:51:42.021Z,93938.00
2023-03-26T10:52:42.093Z,93938.00
2023-03-26T10:53:42.105Z,93938.00
2023-03-26T10:54:42.509Z,93940.00
2023-03-26T11:00:42.454Z,93942.00
2023-03-26T11:01:42.571Z,93942.00
2023-03-26T11:02:42.582Z,93946.00
2023-03-26T11:03:42.601Z,93942.00
2023-03-26T11:04:42.730Z,93944.00
2023-03-26T11:06:42.745Z,93938.00
2023-03-26T11:07:42.820Z,93942.00
2023-03-26T11:08:42.881Z,93940.00
2023-03-26T11:09:42.924Z,93936.00
2023-03-26T11:10:42.988Z,93934.00
2023-03-26T11:11:43.110Z,93930.00
2023-03-26T11:12:43.149Z,93924.00
2023-03-26T11:13:43.221Z,93926.00
2023-03-26T11:14:43.318Z,93920.00
2023-03-26T11:15:43.396Z,93920.00
2023-03-26T11:16:43.937Z,93914.00
2023-03-26T11:18:43.577Z,93912.00
2023-03-26T11:19:43.583Z,93914.00
2023-03-26T11:20:43.690Z,93909.00
2023-03-26T11:21:43.737Z,93907.00
2023-03-26T11:22:43.817Z,93905.00
2023-03-26T11:23:43.848Z,93905.00
2023-03-26T11:24:43.900Z,93907.00
2023-03-26T11:25:43.970Z,93907.00
2023-03-26T11:26:44.023Z,93909.00
2023-03-26T11:27:44.091Z,93905.00
2023-03-26T11:29:03.469Z,93903.00
2023-03-26T11:29:45.165Z,93901.00
2023-03-26T11:33:45.294Z,93897.00
2023-03-26T11:34:44.328Z,93893.00
2023-03-26T11:35:44.405Z,93891.00
2023-03-26T11:36:44.348Z,93889.00
2023-03-26T11:37:44.352Z,93887.00
2023-03-26T11:38:44.357Z,93885.00
2023-03-26T11:39:44.419Z,93885.00
2023-03-26T11:40:44.424Z,93883.00
2023-03-26T11:41:44.421Z,93883.00
2023-03-26T11:42:44.450Z,93881.00
2023-03-26T11:43:44.492Z,93879.00
2023-03-26T11:44:44.508Z,93877.00
2023-03-26T11:45:44.550Z,93877.00
2023-03-26T11:46:44.595Z,93873.00
2023-03-26T11:47:44.680Z,93867.00
2023-03-26T11:48:44.855Z,93858.00
2023-03-26T11:52:46.886Z,93852.00
2023-03-26T11:53:44.931Z,93848.00
2023-03-26T11:54:44.986Z,93844.00
2023-03-26T11:55:45.045Z,93848.00
2023-03-26T11:57:04.935Z,93848.00
2023-03-26T11:57:46.114Z,93852.00
2023-03-26T12:01:45.231Z,93844.00
2023-03-26T12:02:45.336Z,93846.00
2023-03-26T12:03:45.258Z,93850.00
2023-03-26T12:04:45.351Z,93850.00
2023-03-26T12:05:45.303Z,93840.00
2023-03-26T12:06:45.303Z,93838.00
2023-03-26T12:07:45.333Z,93840.00
2023-03-26T12:08:45.338Z,93842.00
2023-03-26T12:09:45.400Z,93840.00
2023-03-26T12:10:45.416Z,93832.00
2023-03-26T12:11:45.524Z,93830.00
2023-03-26T12:19:45.722Z,93813.00
2023-03-26T12:20:45.728Z,93813.00
2023-03-26T12:21:45.769Z,93815.00
2023-03-26T12:22:47.741Z,93819.00
2023-03-26T12:24:45.939Z,93817.00
2023-03-26T12:25:45.983Z,93823.00
2023-03-26T12:26:46.051Z,93819.00
2023-03-26T12:27:46.082Z,93821.00
2023-03-26T12:28:46.130Z,93825.00
2023-03-26T12:29:46.192Z,93823.00
2023-03-26T12:30:46.221Z,93827.00
2023-03-26T12:31:46.313Z,93827.00
2023-03-26T12:32:47.053Z,93827.00
2023-03-26T12:33:46.424Z,93825.00
2023-03-26T12:34:46.470Z,93827.00
2023-03-26T12:35:46.504Z,93823.00
2023-03-26T12:36:46.578Z,93825.00
2023-03-26T12:37:46.584Z,93830.00
2023-03-26T12:39:16.353Z,93836.00
2023-03-26T12:40:09.449Z,93840.00
2023-03-26T12:40:47.736Z,93848.00
2023-03-26T12:44:59.322Z,93844.00
2023-03-26T12:45:47.873Z,93834.00
2023-03-26T12:47:59.506Z,93834.00
2023-03-26T12:47:59.726Z,93836.00
2023-03-26T12:48:48.022Z,93828.00
2023-03-26T12:50:46.991Z,93838.00
2023-03-26T12:51:46.999Z,93838.00
2023-03-26T12:52:47.021Z,93836.00
2023-03-26T12:53:47.106Z,93838.00
2023-03-26T12:54:47.106Z,93836.00
2023-03-26T12:55:47.126Z,93838.00
2023-03-26T12:56:47.196Z,93838.00
2023-03-26T12:57:47.189Z,93838.00
2023-03-26T12:58:47.244Z,93840.00
2023-03-26T12:59:47.271Z,93844.00
2023-03-26T13:00:47.317Z,93852.00
2023-03-26T13:01:47.387Z,93856.00
2023-03-26T13:02:47.460Z,93867.00
2023-03-26T13:03:47.373Z,93865.00
2023-03-26T13:05:02.341Z,93858.00
2023-03-26T13:05:48.490Z,93865.00
2023-03-26T13:08:47.544Z,93871.00
2023-03-26T13:09:47.591Z,93877.00
2023-03-26T13:10:47.666Z,93891.00
2023-03-26T13:11:47.672Z,93891.00
2023-03-26T13:12:47.764Z,93899.00
2023-03-26T13:13:47.743Z,93895.00
2023-03-26T13:14:47.760Z,93897.00
2023-03-26T13:15:47.834Z,93905.00
2023-03-26T13:16:47.851Z,93901.00
2023-03-26T13:17:47.933Z,93909.00
2023-03-26T13:18:47.913Z,93899.00
2023-03-26T13:19:47.947Z,93901.00
2023-03-26T13:20:48.075Z,93909.00
2023-03-26T13:21:48.111Z,93911.00
2023-03-26T13:22:48.177Z,93911.00
2023-03-26T13:23:48.287Z,93905.00
2023-03-26T13:24:48.357Z,93901.00
2023-03-26T13:25:48.440Z,93907.00
2023-03-26T13:26:48.525Z,93905.00
2023-03-26T13:27:48.706Z,93907.00
2023-03-26T13:28:48.698Z,93905.00
2023-03-26T13:29:48.790Z,93909.00
2023-03-26T13:30:48.963Z,93914.00
2023-03-26T13:31:48.947Z,93914.00
2023-03-26T13:32:49.054Z,93914.00
2023-03-26T13:33:49.111Z,93914.00
2023-03-26T13:34:49.203Z,93916.00
2023-03-26T13:35:49.774Z,93918.00
2023-03-26T13:36:49.444Z,93920.00
2023-03-26T13:37:49.464Z,93918.00
2023-03-26T13:38:59.139Z,93916.00
2023-03-26T13:39:50.685Z,93909.00
2023-03-26T13:41:49.633Z,93899.00
2023-03-26T13:42:49.692Z,93901.00
2023-03-26T13:43:49.712Z,93903.00
2023-03-26T13:44:49.746Z,93903.00
2023-03-26T13:45:49.854Z,93903.00
2023-03-26T13:46:49.839Z,93903.00
2023-03-26T13:47:49.923Z,93901.00
2023-03-26T13:48:49.871Z,93903.00
2023-03-26T13:49:49.947Z,93903.00
2023-03-26T13:50:51.260Z,93907.00
2023-03-26T13:51:50.219Z,93907.00
2023-03-26T13:56:50.622Z,93897.00
2023-03-26T14:00:50.732Z,93893.00
2023-03-26T14:01:51.262Z,93893.00
2023-03-26T14:02:50.800Z,93893.00
2023-03-26T14:03:50.881Z,93893.00
2023-03-26T14:04:50.994Z,93893.00
2023-03-26T14:05:50.986Z,93893.00
2023-03-26T14:06:51.043Z,93895.00
2023-03-26T14:07:51.119Z,93901.00
2023-03-26T14:08:51.205Z,93903.00
2023-03-26T14:09:51.287Z,93903.00
2023-03-26T14:10:51.289Z,93901.00
2023-03-26T14:11:51.300Z,93901.00
2023-03-26T14:12:51.384Z,93905.00
2023-03-26T14:13:51.602Z,93907.00
2023-03-26T14:14:51.542Z,93909.00
2023-03-26T14:16:51.649Z,93907.00
2023-03-26T14:17:51.946Z,93909.00
2023-03-26T14:18:51.717Z,93907.00
2023-03-26T14:19:51.771Z,93905.00
2023-03-26T14:20:51.806Z,93905.00
2023-03-26T14:21:51.876Z,93903.00
2023-03-26T14:22:51.923Z,93905.00
2023-03-26T14:23:52.000Z,93907.00
2023-03-26T14:24:52.047Z,93905.00
2023-03-26T14:25:52.130Z,93907.00
2023-03-26T14:26:52.157Z,93905.00
2023-03-26T14:27:52.243Z,93903.00
2023-03-26T14:28:52.302Z,93901.00
2023-03-26T14:29:56.814Z,93899.00
2023-03-26T14:30:53.601Z,93899.00
2023-03-26T14:31:52.411Z,93897.00
2023-03-26T14:32:52.482Z,93897.00
2023-03-26T14:33:52.431Z,93899.00
2023-03-26T14:34:52.441Z,93897.00
2023-03-26T14:35:52.560Z,93893.00
2023-03-26T14:36:52.494Z,93891.00
2023-03-26T14:37:52.540Z,93887.00
2023-03-26T14:38:52.586Z,93889.00
2023-03-26T14:39:52.589Z,93887.00
2023-03-26T14:40:52.662Z,93883.00
2023-03-26T14:41:52.664Z,93881.00
2023-03-26T14:42:55.218Z,93881.00
2023-03-26T14:43:52.772Z,93877.00
2023-03-26T14:44:52.771Z,93877.00
2023-03-26T14:45:52.822Z,93877.00
2023-03-26T14:46:52.930Z,93877.00
2023-03-26T14:47:53.142Z,93871.00
2023-03-26T14:48:52.897Z,93869.00
2023-03-26T14:49:52.908Z,93867.00
2023-03-26T14:50:53.037Z,93865.00
2023-03-26T14:51:52.977Z,93865.00
2023-03-26T14:52:53.028Z,93867.00
2023-03-26T14:53:54.028Z,93873.00
2023-03-26T14:54:53.082Z,93879.00
2023-03-26T14:55:53.105Z,93883.00
2023-03-26T14:56:53.153Z,93887.00
2023-03-26T14:57:53.134Z,93893.00
2023-03-26T14:58:53.166Z,93893.00
2023-03-26T14:59:53.199Z,93895.00
2023-03-26T15:00:53.281Z,93893.00
2023-03-26T15:01:54.259Z,93891.00
2023-03-26T15:06:53.351Z,93899.00
2023-03-26T15:07:53.360Z,93901.00
2023-03-26T15:08:53.446Z,93905.00
2023-03-26T15:10:53.600Z,93905.00
2023-03-26T15:11:53.452Z,93905.00
2023-03-26T15:12:54.492Z,93903.00
2023-03-26T15:14:54.095Z,93899.00
2023-03-26T15:15:55.006Z,93891.00
2023-03-26T15:16:53.665Z,93895.00
2023-03-26T15:17:53.640Z,93893.00
2023-03-26T15:18:53.627Z,93893.00
2023-03-26T15:19:53.743Z,93895.00
2023-03-26T15:25:53.792Z,93899.00